createdAt,value
2018-09-27T00:00:18.023Z,1.60
2018-09-27T00:02:52.917Z,1.30
2018-09-27T00:05:27.725Z,1.53
2018-09-27T00:08:02.514Z,1.60
2018-09-27T00:10:37.340Z,1.60
2018-09-27T00:13:12.390Z,1.57
2018-09-27T00:15:47.297Z,1.60
2018-09-27T00:18:22.102Z,1.70
2018-09-27T00:20:57.110Z,1.37
2018-09-27T00:23:31.915Z,1.70
2018-09-27T00:26:07.933Z,1.60
2018-09-27T00:28:42.827Z,2.10
2018-09-27T00:31:17.833Z,1.30
2018-09-27T00:33:52.633Z,1.77
2018-09-27T00:36:27.521Z,1.97
2018-09-27T00:39:02.264Z,1.53
2018-09-27T00:41:37.284Z,2.00
2018-09-27T00:44:13.065Z,1.50
2018-09-27T00:46:47.982Z,1.53
2018-09-27T00:49:23.007Z,1.43
2018-09-27T00:51:57.784Z,1.67
2018-09-27T00:54:32.621Z,1.20
2018-09-27T00:57:07.400Z,1.47
2018-09-27T00:59:42.178Z,1.83
2018-09-27T01:02:17.017Z,1.63
2018-09-27T01:04:51.896Z,1.83
2018-09-27T01:07:26.712Z,2.03
2018-09-27T01:10:01.758Z,2.13
2018-09-27T01:12:36.615Z,1.30
2018-09-27T01:15:11.630Z,1.50
2018-09-27T01:17:46.474Z,2.10
2018-09-27T01:20:21.238Z,1.60
2018-09-27T01:22:56.217Z,1.40
2018-09-27T01:25:31.044Z,1.23
2018-09-27T01:28:05.855Z,1.30
2018-09-27T01:30:40.885Z,1.27
2018-09-27T01:33:15.691Z,1.57
2018-09-27T01:35:50.956Z,1.80
2018-09-27T01:38:26.002Z,1.70
2018-09-27T01:41:01.105Z,1.60
2018-09-27T01:43:36.086Z,1.60
2018-09-27T01:46:10.844Z,1.30
2018-09-27T01:48:45.841Z,1.50
2018-09-27T01:51:21.250Z,1.40
2018-09-27T01:53:56.020Z,1.50
2018-09-27T01:56:30.899Z,1.57
2018-09-27T01:59:05.724Z,1.80
2018-09-27T02:01:40.745Z,1.50
2018-09-27T02:04:15.563Z,1.63
2018-09-27T02:06:50.592Z,1.53
2018-09-27T02:09:25.635Z,1.93
2018-09-27T02:12:00.434Z,1.60
2018-09-27T02:14:35.206Z,1.60
2018-09-27T02:17:10.110Z,1.23
2018-09-27T02:19:45.180Z,1.40
2018-09-27T02:22:20.286Z,1.63
2018-09-27T02:24:55.173Z,1.90
2018-09-27T02:27:30.183Z,1.30
2018-09-27T02:30:05.136Z,1.40
2018-09-27T02:32:40.141Z,1.00
2018-09-27T02:35:15.196Z,1.57
2018-09-27T02:37:50.110Z,1.20
2018-09-27T02:40:25.525Z,1.17
2018-09-27T02:43:00.322Z,0.97
2018-09-27T02:45:35.333Z,1.77
2018-09-27T02:48:10.266Z,1.93
2018-09-27T02:50:45.293Z,1.63
2018-09-27T02:53:20.264Z,1.43
2018-09-27T02:55:55.125Z,1.50
2018-09-27T02:58:29.940Z,1.27
2018-09-27T03:01:04.754Z,1.63
2018-09-27T03:03:39.614Z,1.63
2018-09-27T03:06:14.802Z,1.70
2018-09-27T03:08:49.849Z,1.30
2018-09-27T03:11:25.172Z,1.23
2018-09-27T03:14:00.302Z,1.50
2018-09-27T03:16:35.460Z,1.47
2018-09-27T03:19:10.477Z,1.33
2018-09-27T03:21:45.387Z,1.83
2018-09-27T03:24:20.449Z,1.30
2018-09-27T03:27:00.825Z,1.10
2018-09-27T03:29:35.919Z,1.70
2018-09-27T03:32:10.793Z,1.40
2018-09-27T03:34:45.793Z,1.17
2018-09-27T03:37:20.616Z,1.10
2018-09-27T03:39:55.723Z,1.10
2018-09-27T03:42:31.076Z,1.50
2018-09-27T03:45:05.874Z,1.30
2018-09-27T03:47:40.895Z,1.90
2018-09-27T03:50:15.889Z,1.10
2018-09-27T03:52:50.812Z,1.27
2018-09-27T03:55:25.665Z,1.50
2018-09-27T03:58:00.723Z,1.50
2018-09-27T04:00:35.697Z,1.70
2018-09-27T04:03:10.401Z,1.57
2018-09-27T04:05:45.160Z,1.60
2018-09-27T04:08:20.198Z,1.07
2018-09-27T04:10:55.275Z,1.23
2018-09-27T04:13:30.351Z,1.50
2018-09-27T04:16:05.441Z,1.17
2018-09-27T04:18:40.503Z,1.20
2018-09-27T04:21:15.626Z,1.10
2018-09-27T04:23:50.730Z,1.73
2018-09-27T04:26:25.759Z,1.40
2018-09-27T04:29:01.274Z,1.27
2018-09-27T04:31:36.130Z,1.00
2018-09-27T04:34:10.911Z,1.07
2018-09-27T04:36:45.773Z,1.10
2018-09-27T04:39:20.413Z,1.33
2018-09-27T04:41:55.213Z,1.00
2018-09-27T04:44:29.925Z,1.23
2018-09-27T04:47:04.955Z,1.33
2018-09-27T04:49:39.913Z,1.47
2018-09-27T04:52:14.721Z,1.00
2018-09-27T04:54:49.989Z,1.47
2018-09-27T04:57:25.031Z,1.30
2018-09-27T05:00:00.061Z,1.00
2018-09-27T05:02:35.150Z,1.10
2018-09-27T05:05:09.825Z,1.50
2018-09-27T05:07:44.869Z,0.97
2018-09-27T05:10:19.737Z,1.40
2018-09-27T05:12:54.762Z,1.20
2018-09-27T05:15:29.701Z,1.10
2018-09-27T05:18:04.968Z,0.90
2018-09-27T05:20:39.946Z,1.10
2018-09-27T05:23:15.030Z,1.30
2018-09-27T05:25:50.134Z,1.43
2018-09-27T05:28:25.202Z,1.60
2018-09-27T05:31:00.227Z,0.93
2018-09-27T05:33:35.140Z,1.17
2018-09-27T05:36:09.772Z,1.60
2018-09-27T05:38:44.770Z,1.20
2018-09-27T05:41:19.810Z,1.40
2018-09-27T05:43:54.803Z,1.27
2018-09-27T05:46:29.739Z,1.10
2018-09-27T05:49:04.773Z,1.60
2018-09-27T05:51:39.694Z,1.60
2018-09-27T05:54:14.378Z,1.20
2018-09-27T05:56:49.246Z,1.00
2018-09-27T05:59:24.432Z,1.17
2018-09-27T06:01:59.366Z,1.10
2018-09-27T06:04:34.389Z,1.60
2018-09-27T06:07:09.356Z,1.23
2018-09-27T06:09:44.124Z,0.90
2018-09-27T06:12:19.441Z,1.13
2018-09-27T06:14:54.286Z,1.13
2018-09-27T06:17:29.066Z,0.83
2018-09-27T06:20:03.729Z,1.30
2018-09-27T06:22:38.695Z,0.90
2018-09-27T06:25:13.553Z,1.00
2018-09-27T06:27:48.347Z,1.60
2018-09-27T06:30:23.197Z,2.00
2018-09-27T06:32:58.038Z,1.00
2018-09-27T06:35:32.828Z,1.40
2018-09-27T06:38:07.856Z,1.00
2018-09-27T06:40:42.685Z,0.97
2018-09-27T06:43:17.766Z,1.60
2018-09-27T06:45:52.758Z,2.90
2018-09-27T06:48:28.381Z,2.70
2018-09-27T06:51:03.711Z,2.17
2018-09-27T06:53:38.565Z,2.80
2018-09-27T06:56:13.474Z,2.87
2018-09-27T06:58:48.946Z,2.90
2018-09-27T07:01:24.145Z,3.90
2018-09-27T07:03:59.239Z,3.20
2018-09-27T07:06:34.361Z,3.50
2018-09-27T07:09:10.823Z,4.20
2018-09-27T07:11:45.515Z,6.10
2018-09-27T07:14:20.865Z,5.57
2018-09-27T07:16:55.697Z,5.93
2018-09-27T07:19:30.524Z,5.00
2018-09-27T07:22:05.450Z,5.77
2018-09-27T07:24:41.148Z,5.07
2018-09-27T07:27:15.854Z,6.60
2018-09-27T07:29:50.516Z,9.30
2018-09-27T07:32:25.913Z,8.73
2018-09-27T07:35:01.363Z,10.73
2018-09-27T07:37:36.162Z,8.80
2018-09-27T07:40:10.973Z,8.07
2018-09-27T07:42:45.874Z,9.77
2018-09-27T07:45:20.818Z,7.20
2018-09-27T07:47:55.908Z,6.10
2018-09-27T07:50:31.036Z,5.40
2018-09-27T07:53:06.529Z,4.70
2018-09-27T07:55:41.505Z,5.57
2018-09-27T07:58:16.564Z,4.50
2018-09-27T08:00:51.618Z,3.60
2018-09-27T08:03:26.454Z,4.07
2018-09-27T08:06:01.500Z,3.80
2018-09-27T08:08:36.663Z,4.40
2018-09-27T08:11:11.789Z,4.30
2018-09-27T08:13:46.785Z,3.60
2018-09-27T08:16:21.628Z,4.83
2018-09-27T08:18:56.438Z,4.10
2018-09-27T08:21:31.485Z,5.40
2018-09-27T08:24:06.550Z,3.43
2018-09-27T08:26:41.633Z,4.70
2018-09-27T08:29:16.925Z,4.40
2018-09-27T08:31:51.958Z,3.50
2018-09-27T08:34:26.924Z,3.83
2018-09-27T08:37:01.960Z,3.17
2018-09-27T08:39:37.065Z,3.07
2018-09-27T08:42:11.901Z,3.80
2018-09-27T08:44:46.845Z,3.20
2018-09-27T08:47:21.551Z,3.40
2018-09-27T08:49:56.402Z,2.63
2018-09-27T08:52:31.269Z,3.30
2018-09-27T08:55:06.068Z,3.37
2018-09-27T08:57:41.174Z,3.10
2018-09-27T09:00:16.362Z,3.30
2018-09-27T09:02:51.470Z,3.70
2018-09-27T09:05:26.560Z,3.40
2018-09-27T09:08:01.990Z,4.20
2018-09-27T09:10:36.812Z,3.20
2018-09-27T09:13:11.644Z,3.30
2018-09-27T09:15:46.447Z,3.00
2018-09-27T09:18:21.912Z,3.30
2018-09-27T09:20:56.857Z,3.17
2018-09-27T09:23:31.597Z,4.20
2018-09-27T09:26:06.803Z,3.07
2018-09-27T09:28:42.044Z,3.70
2018-09-27T09:31:17.316Z,3.30
2018-09-27T09:33:52.178Z,2.90
2018-09-27T09:36:27.285Z,3.13
2018-09-27T09:39:02.131Z,2.93
2018-09-27T09:41:37.166Z,3.40
2018-09-27T09:44:11.958Z,2.93
2018-09-27T09:46:46.775Z,2.53
2018-09-27T09:49:21.809Z,3.03
2018-09-27T09:51:56.684Z,2.70
2018-09-27T09:54:31.369Z,3.30
2018-09-27T09:57:06.962Z,3.33
2018-09-27T09:59:42.127Z,2.63
2018-09-27T10:02:17.006Z,3.00
2018-09-27T10:04:51.980Z,2.83
2018-09-27T10:07:27.376Z,2.90
2018-09-27T10:10:02.159Z,3.27
2018-09-27T10:12:37.181Z,2.60
2018-09-27T10:15:12.014Z,2.50
2018-09-27T10:17:46.882Z,2.87
2018-09-27T10:20:22.158Z,2.30
2018-09-27T10:22:57.694Z,2.73
2018-09-27T10:25:32.501Z,3.20
2018-09-27T10:28:07.560Z,2.97
2018-09-27T10:30:42.721Z,2.37
2018-09-27T10:33:17.382Z,2.67
2018-09-27T10:35:53.078Z,3.10
2018-09-27T10:38:28.221Z,3.20
2018-09-27T10:41:03.263Z,3.43
2018-09-27T10:43:38.171Z,3.30
2018-09-27T10:46:13.543Z,2.93
2018-09-27T10:48:48.697Z,2.80
2018-09-27T10:51:23.803Z,2.67
2018-09-27T10:53:59.230Z,2.70
2018-09-27T10:56:34.115Z,3.00
2018-09-27T10:59:09.056Z,2.80
2018-09-27T11:01:44.507Z,7.37
2018-09-27T11:04:19.269Z,13.40
2018-09-27T11:06:54.092Z,15.47
2018-09-27T11:09:28.862Z,14.70
2018-09-27T11:12:04.194Z,15.20
2018-09-27T11:14:39.544Z,14.60
2018-09-27T11:17:14.488Z,16.83
2018-09-27T11:19:49.336Z,12.97
2018-09-27T11:22:24.148Z,13.43
2018-09-27T11:24:58.930Z,12.00
2018-09-27T11:27:33.818Z,12.23
2018-09-27T11:30:14.272Z,11.07
2018-09-27T11:32:49.690Z,11.07
2018-09-27T11:35:24.502Z,11.90
2018-09-27T11:37:59.301Z,10.80
2018-09-27T11:40:34.161Z,11.70
2018-09-27T11:43:09.292Z,13.10
2018-09-27T11:45:44.445Z,12.30
2018-09-27T11:48:19.326Z,11.60
2018-09-27T11:50:54.109Z,9.60
2018-09-27T11:53:28.965Z,10.17
2018-09-27T11:56:04.024Z,10.53
2018-09-27T11:58:39.220Z,9.27
2018-09-27T12:01:14.269Z,10.47
2018-09-27T12:03:49.161Z,8.40
2018-09-27T12:06:24.324Z,10.43
2018-09-27T12:08:59.757Z,9.40
2018-09-27T12:11:35.090Z,8.10
2018-09-27T12:14:10.571Z,8.57
2018-09-27T12:16:45.549Z,8.77
2018-09-27T12:19:20.399Z,8.50
2018-09-27T12:21:55.202Z,8.40
2018-09-27T12:24:30.241Z,8.03
2018-09-27T12:27:05.503Z,8.70
2018-09-27T12:29:40.864Z,7.30
2018-09-27T12:32:16.041Z,7.20
2018-09-27T12:34:50.950Z,7.90
2018-09-27T12:37:25.656Z,7.47
2018-09-27T12:40:00.796Z,6.30
2018-09-27T12:42:35.725Z,6.63
2018-09-27T12:45:10.730Z,7.77
2018-09-27T12:47:45.528Z,6.83
2018-09-27T12:50:20.718Z,6.23
2018-09-27T12:52:56.249Z,6.53
2018-09-27T12:55:31.204Z,7.27
2018-09-27T12:58:06.455Z,8.30
2018-09-27T13:00:41.249Z,12.97
2018-09-27T13:03:16.274Z,16.50
2018-09-27T13:05:51.662Z,18.27
2018-09-27T13:08:26.913Z,20.80
2018-09-27T13:11:01.673Z,18.10
2018-09-27T13:13:36.666Z,18.90
2018-09-27T13:16:11.554Z,20.97
2018-09-27T13:18:46.323Z,21.40
2018-09-27T13:21:21.122Z,19.23
2018-09-27T13:23:56.211Z,19.43
2018-09-27T13:26:31.290Z,17.57
2018-09-27T13:29:06.114Z,19.07
2018-09-27T13:31:41.076Z,17.17
2018-09-27T13:34:15.924Z,18.70
2018-09-27T13:36:50.749Z,17.77
2018-09-27T13:39:25.545Z,17.70
2018-09-27T13:42:00.347Z,16.23
2018-09-27T13:44:35.007Z,14.20
2018-09-27T13:47:09.801Z,15.23
2018-09-27T13:49:44.921Z,14.47
2018-09-27T13:52:19.637Z,13.80
2018-09-27T13:54:54.481Z,15.20
2018-09-27T13:57:29.560Z,12.70
2018-09-27T14:00:04.350Z,12.87
2018-09-27T14:02:39.417Z,13.70
2018-09-27T14:05:14.293Z,13.10
2018-09-27T14:07:49.398Z,13.97
2018-09-27T14:10:24.320Z,11.57
2018-09-27T14:12:59.408Z,13.37
2018-09-27T14:15:34.277Z,10.77
2018-09-27T14:18:09.120Z,12.90
2018-09-27T14:20:44.078Z,11.83
2018-09-27T14:23:19.258Z,12.73
2018-09-27T14:25:54.064Z,12.30
2018-09-27T14:28:29.117Z,11.70
2018-09-27T14:31:03.996Z,10.97
2018-09-27T14:33:39.038Z,11.30
2018-09-27T14:36:14.520Z,11.50
2018-09-27T14:38:49.403Z,10.27
2018-09-27T14:41:24.515Z,11.63
2018-09-27T14:43:59.358Z,10.80
2018-09-27T14:46:34.389Z,10.60
2018-09-27T14:49:09.573Z,10.97
2018-09-27T14:51:44.495Z,9.47
2018-09-27T14:54:19.330Z,10.87
2018-09-27T14:56:54.162Z,10.30
2018-09-27T14:59:28.906Z,9.70
2018-09-27T15:02:03.947Z,9.50
2018-09-27T15:04:39.240Z,10.70
2018-09-27T15:07:14.561Z,9.80
2018-09-27T15:09:49.684Z,8.50
2018-09-27T15:12:24.514Z,10.20
2018-09-27T15:14:59.843Z,8.53
2018-09-27T15:17:35.074Z,9.30
2018-09-27T15:20:10.157Z,9.67
2018-09-27T15:22:45.369Z,10.27
2018-09-27T15:25:20.341Z,8.57
2018-09-27T15:27:55.618Z,9.00
2018-09-27T15:30:30.399Z,8.73
2018-09-27T15:33:05.213Z,8.80
2018-09-27T15:35:40.231Z,8.90
2018-09-27T15:38:15.045Z,7.90
2018-09-27T15:40:50.077Z,8.43
2018-09-27T15:43:24.955Z,9.20
2018-09-27T15:45:59.740Z,10.30
2018-09-27T15:48:34.770Z,8.07
2018-09-27T15:51:10.137Z,9.40
2018-09-27T15:53:44.929Z,8.63
2018-09-27T15:56:19.601Z,8.63
2018-09-27T15:58:54.401Z,10.47
2018-09-27T16:01:29.200Z,8.90
2018-09-27T16:04:04.294Z,9.27
2018-09-27T16:06:39.414Z,9.00
2018-09-27T16:09:14.488Z,8.30
2018-09-27T16:11:49.359Z,9.57
2018-09-27T16:14:24.346Z,8.60
2018-09-27T16:16:59.241Z,8.60
2018-09-27T16:19:34.298Z,8.00
2018-09-27T16:22:09.109Z,7.50
2018-09-27T16:24:43.909Z,7.70
2018-09-27T16:27:18.974Z,9.37
2018-09-27T16:29:53.857Z,7.40
2018-09-27T16:32:28.929Z,8.00
2018-09-27T16:35:03.815Z,8.00
2018-09-27T16:37:38.508Z,9.00
2018-09-27T16:40:13.591Z,7.20
2018-09-27T16:42:48.963Z,8.07
2018-09-27T16:45:24.015Z,8.20
2018-09-27T16:47:59.169Z,8.00
2018-09-27T16:50:34.273Z,7.90
2018-09-27T16:53:09.753Z,7.17
2018-09-27T16:55:44.565Z,7.83
2018-09-27T16:58:19.369Z,8.47
2018-09-27T17:00:54.371Z,7.47
2018-09-27T17:03:29.260Z,7.23
2018-09-27T17:06:04.137Z,7.27
2018-09-27T17:08:38.928Z,6.47
2018-09-27T17:11:13.864Z,7.87
2018-09-27T17:13:48.462Z,8.20
2018-09-27T17:16:23.621Z,7.40
2018-09-27T17:18:58.488Z,9.20
2018-09-27T17:21:33.261Z,7.90
2018-09-27T17:24:08.829Z,7.43
2018-09-27T17:26:43.774Z,6.80
2018-09-27T17:29:18.847Z,7.17
2018-09-27T17:31:53.898Z,6.57
2018-09-27T17:34:29.162Z,7.83
2018-09-27T17:37:04.093Z,6.57
2018-09-27T17:39:39.153Z,7.10
2018-09-27T17:42:14.260Z,7.47
2018-09-27T17:44:49.197Z,6.90
2018-09-27T17:47:23.985Z,7.00
2018-09-27T17:49:58.863Z,6.47
2018-09-27T17:52:33.829Z,5.87
2018-09-27T17:55:08.932Z,6.50
2018-09-27T17:57:43.904Z,6.70
2018-09-27T18:00:18.749Z,6.70
2018-09-27T18:02:53.778Z,5.47
2018-09-27T18:05:28.712Z,5.27
2018-09-27T18:08:03.280Z,6.90
2018-09-27T18:10:38.141Z,6.37
2018-09-27T18:13:14.772Z,5.87
2018-09-27T18:15:49.638Z,5.90
2018-09-27T18:18:24.557Z,7.47
2018-09-27T18:20:59.393Z,7.03
2018-09-27T18:23:34.237Z,6.27
2018-09-27T18:26:09.194Z,6.43
2018-09-27T18:28:44.409Z,6.50
2018-09-27T18:31:19.876Z,6.20
2018-09-27T18:33:55.205Z,6.50
2018-09-27T18:36:30.018Z,5.30
2018-09-27T18:39:06.998Z,5.23
2018-09-27T18:41:43.078Z,5.77
2018-09-27T18:44:18.213Z,5.00
2018-09-27T18:46:53.057Z,5.80
2018-09-27T18:49:27.979Z,5.53
2018-09-27T18:52:02.843Z,5.77
2018-09-27T18:54:38.189Z,5.27
2018-09-27T18:57:13.078Z,5.73
2018-09-27T18:59:48.617Z,6.30
2018-09-27T19:02:23.650Z,5.57
2018-09-27T19:04:58.750Z,5.33
2018-09-27T19:07:33.821Z,6.07
2018-09-27T19:10:08.649Z,6.10
2018-09-27T19:12:43.545Z,5.00
2018-09-27T19:15:18.620Z,6.20
2018-09-27T19:17:53.721Z,5.67
2018-09-27T19:20:28.777Z,5.90
2018-09-27T19:23:03.623Z,5.70
2018-09-27T19:25:38.536Z,6.13
2018-09-27T19:28:13.439Z,4.80
2018-09-27T19:30:48.227Z,5.40
2018-09-27T19:33:23.049Z,6.80
2018-09-27T19:35:57.836Z,5.80
2018-09-27T19:38:32.771Z,5.40
2018-09-27T19:41:07.837Z,6.23
2018-09-27T19:43:42.509Z,5.17
2018-09-27T19:46:17.594Z,5.30
2018-09-27T19:48:52.374Z,5.23
2018-09-27T19:51:27.429Z,6.07
2018-09-27T19:54:02.364Z,5.33
2018-09-27T19:56:37.189Z,5.20
2018-09-27T19:59:12.028Z,5.30
2018-09-27T20:01:46.843Z,5.40
2018-09-27T20:04:21.705Z,5.43
2018-09-27T20:06:56.470Z,5.20
2018-09-27T20:09:31.548Z,6.33
2018-09-27T20:12:06.371Z,5.30
2018-09-27T20:14:41.454Z,6.10
2018-09-27T20:17:16.459Z,6.37
2018-09-27T20:19:51.486Z,5.70
2018-09-27T20:22:26.400Z,5.97
2018-09-27T20:25:01.640Z,5.03
2018-09-27T20:27:36.480Z,6.00
2018-09-27T20:30:11.669Z,6.00
2018-09-27T20:32:46.722Z,5.60
2018-09-27T20:35:22.102Z,6.10
2018-09-27T20:37:56.953Z,5.73
2018-09-27T20:40:31.741Z,6.03
2018-09-27T20:43:06.601Z,5.80
2018-09-27T20:45:41.441Z,6.23
2018-09-27T20:48:16.477Z,5.40
2018-09-27T20:50:51.573Z,5.20
2018-09-27T20:53:26.425Z,5.03
2018-09-27T20:56:01.365Z,5.23
2018-09-27T20:58:36.202Z,5.27
2018-09-27T21:01:10.990Z,5.13
2018-09-27T21:03:45.766Z,5.20
2018-09-27T21:06:20.678Z,5.10
2018-09-27T21:08:55.759Z,4.97
2018-09-27T21:11:30.593Z,4.23
2018-09-27T21:14:05.654Z,6.37
2018-09-27T21:16:41.353Z,5.27
2018-09-27T21:19:16.597Z,5.50
2018-09-27T21:21:52.221Z,5.30
2018-09-27T21:24:27.315Z,5.30
2018-09-27T21:27:02.426Z,5.50
2018-09-27T21:29:37.241Z,5.20
2018-09-27T21:32:12.028Z,5.03
2018-09-27T21:34:46.806Z,4.70
2018-09-27T21:37:21.722Z,4.10
2018-09-27T21:39:56.544Z,4.93
2018-09-27T21:42:31.473Z,4.50
2018-09-27T21:45:06.314Z,4.90
2018-09-27T21:47:41.017Z,5.13
2018-09-27T21:50:15.932Z,5.33
2018-09-27T21:52:51.262Z,5.40
2018-09-27T21:55:26.305Z,4.77
2018-09-27T21:58:01.160Z,4.93
2018-09-27T22:00:36.174Z,4.63
2018-09-27T22:03:11.072Z,5.17
2018-09-27T22:05:45.786Z,4.20
2018-09-27T22:08:20.858Z,6.03
2018-09-27T22:10:55.929Z,4.90
2018-09-27T22:13:31.073Z,4.50
2018-09-27T22:16:06.157Z,4.57
2018-09-27T22:18:41.373Z,4.13
2018-09-27T22:21:16.285Z,3.80
2018-09-27T22:23:51.057Z,4.37
2018-09-27T22:26:26.487Z,4.17
2018-09-27T22:29:01.281Z,4.13
2018-09-27T22:31:36.189Z,3.60
2018-09-27T22:34:11.054Z,4.40
2018-09-27T22:36:45.845Z,4.10
2018-09-27T22:39:20.613Z,4.33
2018-09-27T22:41:55.554Z,4.60
2018-09-27T22:44:30.404Z,4.97
2018-09-27T22:47:05.197Z,4.77
2018-09-27T22:49:40.101Z,3.80
2018-09-27T22:52:14.940Z,3.50
2018-09-27T22:54:50.320Z,3.90
2018-09-27T22:57:25.113Z,3.87
2018-09-27T23:00:00.154Z,4.20
2018-09-27T23:02:34.995Z,3.60
2018-09-27T23:05:09.798Z,4.90
2018-09-27T23:07:44.845Z,3.83
2018-09-27T23:10:20.311Z,4.43
2018-09-27T23:12:55.365Z,4.73
2018-09-27T23:15:30.193Z,3.23
2018-09-27T23:18:05.081Z,3.80
2018-09-27T23:20:40.443Z,4.03
2018-09-27T23:23:15.463Z,4.17
2018-09-27T23:25:50.581Z,3.60
2018-09-27T23:28:25.721Z,3.60
2018-09-27T23:31:01.141Z,3.93
2018-09-27T23:33:36.295Z,4.00
2018-09-27T23:36:11.767Z,4.53
2018-09-27T23:38:46.546Z,4.07
2018-09-27T23:41:21.789Z,4.30
2018-09-27T23:43:56.880Z,3.67
2018-09-27T23:46:31.934Z,3.50
2018-09-27T23:49:07.043Z,3.87
2018-09-27T23:51:42.561Z,4.00
2018-09-27T23:54:17.708Z,4.70
2018-09-27T23:56:52.783Z,4.10
2018-09-27T23:59:27.878Z,3.70
